DTMB/MIR METAR and TAF weather

Enter ICAO airport designator
Station Type Date Time Source
DTMB METAR 2020/07/06 19:30 UTC NOAA

DTMB 061930Z 35004KT 300V030 CAVOK 26/22 Q1010 NOSIG


Station Type Date Time Source
DTMB Decoded METAR 2020/07/06 19:30 UTC NOAA

Habib Bourguiba , Tunisia (DTMB) 35-46N 010-45E
Jul 06, 2020 - 03:30 PM EDT / 2020.07.06 1930 UTC
Wind: from the N (350 degrees) at 5 MPH (4 KT) (direction variable):0
Visibility: greater than 7 mile(s):0
Temperature: 78 F (26 C)
Dew Point: 71 F (22 C)
Relative Humidity: 78%
Pressure (altimeter): 29.83 in. Hg (1010 hPa)
ob: DTMB 061930Z 35004KT 300V030 CAVOK 26/22 Q1010 NOSIG
cycle: 19

Station Type Date Time Source
DTMB TAF 2020/07/06 18:54 UTC NOAA

TAF TAF DTMB 061700Z 0618/0718 07010KT 9999 FEW026
BECMG 0618/0620 33010G23KT

Example: see airport list